Aérodrome :
LOGIN :

S'inscrire | Disclaimer

   EN    FR    IT 

 










Légende :    VFR   VFR Marginal   IFR   IFR Intensif   IFR Très Intensif
Visi : 
Plafond : 
>= 8 km
>= 3000ft
5 à 8 km
1000 à 3000 ft
1500m à 5 km
500 à 1000 ft
800 à 1500m
200 à 500 ft
< 800m
< 200 ft
Symboles :   Orages  Brouillard  Fortes neiges  Fortes précipitations  Vent > 20 kt
SIGMETs :   Divers  Orages  Givrage  Turbulence  Onde Orograph.  Cendres Volcan.







- Altitude de l'aérodrome : 39 ft
- Code IATA : ANR


EBAW - Anvers / Antwerpen Deurne

DERNIER METAR :
  • 261720Z 34010KT 320V030 9999 FEW028CB BKN049 09/M01 Q1014 NOSIG

METARs EXPIRÉS :
  • 261650Z 33011KT 290V040 9999 FEW028CB SCT044 10/01 Q1014 NOSIG
  • 261620Z 03007KT 350V070 9999 -SHRA FEW028CB SCT040 08/02 Q1014 NOSIG
  • 261550Z 36005KT 270V050 9999 SCT035TCU 10/00 Q1014 NOSIG
  • 261520Z 04007KT 010V070 9999 FEW023CB SCT035TCU 09/01 Q1014 NOSIG
  • 261450Z 30007KT 260V350 9999 FEW023CB SCT035TCU 09/01 Q1014 NOSIG

TAF TAF EBAW
Valide du 26 à 18h jusqu'au 27 à 03h UTC


261713Z 2618/2703 34006KT 9999 FEW025TCU SCT040
Pas de NOTAMs connus pour ce terrain.



MET'MAP, la Météo Aéronautique d'un coup d'oeil ! - Copyright ORBIFLY Décembre 2007 - Disclaimer

ORBIFLY MET'MAP TEAM :

Programmation & Développement : Alexandra Zaïnal
Conception & Développement : Baudouin d'Aumeries
Co-Programmation & Développement : Marc-Olivier Méhu
Soutien technique & logistique : Manuel Goepfert

Contact : metmap@orbifly.com




SOURCES & CREDITS :

   NOAA